This is the latest recevied weather packets stored in our database for station/object ED2YAA-10. If no packets are shown the sender has not sent any weather packets the latest 1 day(s).
| Time | Temp. | Humidity | Pressure | Rain* | Wind** | Luminosity | Snow |
|---|---|---|---|---|---|---|---|
| 1778097475 | 34.44° C | 21% | 927.1 hPa | - | - | - | - |
| 1778095675 | 33.33° C | 24% | 927 hPa | - | - | - | - |
| 1778094775 | 22.78° C | 37% | 926.8 hPa | - | - | - | - |
| 1778092918 | 22.22° C | 37% | 926.6 hPa | - | - | - | - |
| 1778092009 | 23.33° C | 36% | 926.6 hPa | - | - | - | - |
| 1778089311 | 22.78° C | 36% | 926.6 hPa | - | - | - | - |
| 1778087513 | 22.22° C | 37% | 926.7 hPa | - | - | - | - |
| 1778086613 | 22.78° C | 36% | 926.7 hPa | - | - | - | - |
| 1778085702 | 22.22° C | 36% | 926.7 hPa | - | - | - | - |
| 1778077594 | 22.78° C | 34% | 927.4 hPa | - | - | - | - |
| 1778076694 | 22.78° C | 34% | 927.5 hPa | - | - | - | - |
| 1778075794 | 22.78° C | 34% | 927.5 hPa | - | - | - | - |
| 1778069482 | 22.78° C | 33% | 927.2 hPa | - | - | - | - |
| 1778065885 | 22.78° C | 34% | 927.4 hPa | - | - | - | - |
| 1778063183 | 22.22° C | 36% | 927.1 hPa | - | - | - | - |
| 1778061380 | 21.67° C | 36% | 926.9 hPa | - | - | - | - |
| 1778060480 | 21.11° C | 37% | 927 hPa | - | - | - | - |
| 1778059580 | 21.11° C | 37% | 927 hPa | - | - | - | - |
| 1778058680 | 21.11° C | 38% | 926.9 hPa | - | - | - | - |
| 1778056886 | 20° C | 38% | 926.9 hPa | - | - | - | - |
| 1778054179 | 18.89° C | 38% | 926.7 hPa | - | - | - | - |
| 1778053279 | 18.33° C | 39% | 926.5 hPa | - | - | - | - |
| 1778051482 | 17.78° C | 39% | 926.1 hPa | - | - | - | - |
| 1778050583 | 17.78° C | 39% | 926.2 hPa | - | - | - | - |
| 1778049683 | 17.78° C | 39% | 925.9 hPa | - | - | - | - |
* Rain since midnight (hover to see other rain measurements)
** Current wind speed in m/s (hover to see current wind gust speed)